Home > Products > Valid Products > TAF

000
FTUS46 KSTO 282300
TAFMHR
TAF
KMHR 282320Z 2900/2924 VRB05KT P6SM BKN200
     FM292200 25006KT P6SM FEW250=



000
FTUS46 KSTO 282300
TAFRBL
TAF
KRBL 282320Z 2900/2924 16009KT P6SM SCT250
     FM290400 VRB04KT P6SM FEW250
     FM292100 16008KT P6SM SCT250=



000
FTUS46 KSTO 282300
TAFSAC
TAF
KSAC 282320Z 2900/2924 VRB05KT P6SM SCT250
     FM292100 23008KT P6SM FEW250=



000
FTUS46 KSTO 282300
TAFSMF
TAF
KSMF 282320Z 2900/2924 VRB05KT P6SM BKN250
     FM290400 15007KT P6SM SCT250
     FM292100 18007KT P6SM FEW250=



000
FTUS46 KSTO 282300
TAFSMF
TAF
KSMF 282320Z 2900/2924 VRB05KT P6SM BKN250
     FM290400 15007KT P6SM SCT250
     FM292100 18007KT P6SM FEW250=



000
FTUS46 KSTO 282300
TAFRDD
TAF
KRDD 282320Z 2900/2924 19008KT P6SM FEW250
     FM290400 VRB04KT P6SM FEW250
     FM292100 18008KT P6SM SCT250=



000
FTUS46 KSTO 282300
TAFMHR
TAF
KMHR 282320Z 2900/2924 VRB05KT P6SM BKN200
     FM292200 25006KT P6SM FEW250=



000
FTUS46 KSTO 282300
TAFRDD
TAF
KRDD 282320Z 2900/2924 19008KT P6SM FEW250
     FM290400 VRB04KT P6SM FEW250
     FM292100 18008KT P6SM SCT250=



000
FTUS46 KSTO 282300
TAFSAC
TAF
KSAC 282320Z 2900/2924 VRB05KT P6SM SCT250
     FM292100 23008KT P6SM FEW250=



000
FTUS46 KSTO 282300
TAFSCK
TAF
KSCK 282320Z 2900/2924 30007KT P6SM SCT250=



000
FTUS46 KSTO 282300
TAFRBL
TAF
KRBL 282320Z 2900/2924 16009KT P6SM SCT250
     FM290400 VRB04KT P6SM FEW250
     FM292100 16008KT P6SM SCT250=



000
FTUS46 KSTO 282300
TAFSCK
TAF
KSCK 282320Z 2900/2924 30007KT P6SM SCT250=



000
FTUS46 KSTO 281700
TAFRBL
TAF
KRBL 281739Z 2818/2918 VRB04KT P6SM BKN250
     FM282100 16009KT P6SM BKN250
     FM290400 VRB04KT P6SM FEW250=



000
FTUS46 KSTO 281700
TAFRDD
TAF
KRDD 281739Z 2818/2918 VRB04KT P6SM SCT250
     FM282200 19008KT P6SM SCT250
     FM290400 VRB04KT P6SM FEW250=



000
FTUS46 KSTO 281700
TAFMHR
TAF
KMHR 281739Z 2818/2918 23007KT P6SM BKN250
     FM290500 15006KT P6SM FEW250=



000
FTUS46 KSTO 281700
TAFSCK
TAF
KSCK 281739Z 2818/2918 30009KT P6SM BKN250
     FM290100 27012KT P6SM BKN250
     FM290800 33004KT P6SM FEW250=



000
FTUS46 KSTO 281700
TAFSMF
TAF
KSMF 281739Z 2818/2918 19010KT P6SM BKN250
     FM290600 15008KT P6SM FEW250=



000
FTUS46 KSTO 281700
TAFSAC
TAF
KSAC 281739Z 2818/2918 22007KT P6SM BKN250
     FM290500 18005KT P6SM FEW250=



000
FTUS46 KSTO 281700
TAFSMF
TAF
KSMF 281739Z 2818/2918 19010KT P6SM BKN250
     FM290600 15008KT P6SM FEW250=



000
FTUS46 KSTO 281700
TAFRBL
TAF
KRBL 281739Z 2818/2918 VRB04KT P6SM BKN250
     FM282100 16009KT P6SM BKN250
     FM290400 VRB04KT P6SM FEW250=



000
FTUS46 KSTO 281700
TAFMHR
TAF
KMHR 281739Z 2818/2918 23007KT P6SM BKN250
     FM290500 15006KT P6SM FEW250=



000
FTUS46 KSTO 281700
TAFSAC
TAF
KSAC 281739Z 2818/2918 22007KT P6SM BKN250
     FM290500 18005KT P6SM FEW250=



000
FTUS46 KSTO 281700
TAFSCK
TAF
KSCK 281739Z 2818/2918 30009KT P6SM BKN250
     FM290100 27012KT P6SM BKN250
     FM290800 33004KT P6SM FEW250=



000
FTUS46 KSTO 281700
TAFRDD
TAF
KRDD 281739Z 2818/2918 VRB04KT P6SM SCT250
     FM282200 19008KT P6SM SCT250
     FM290400 VRB04KT P6SM FEW250=



000
FTUS46 KSTO 281500 AAB
TAFSAC
TAF AMD
KSAC 281519Z 2815/2912 20004KT P6SM FEW010
     FM281800 22006KT P6SM SCT250
     FM282000 21007KT P6SM SCT250
     FM290500 18005KT P6SM FEW250=



000
FTUS46 KSTO 281500 AAB
TAFMHR
TAF AMD
KMHR 281519Z 2815/2912 19004KT P6SM FEW015
     FM281800 18004KT P6SM SCT250
     FM282100 21006KT P6SM SCT250
     FM290500 15006KT P6SM FEW250=



000
FTUS46 KSTO 281400 AAA
TAFMHR
TAF AMD
KMHR 281415Z 2814/2912 11004KT P6SM OVC009
     FM281900 18004KT P6SM SCT010 SCT250
     FM282100 21006KT P6SM SCT250
     FM290500 15006KT P6SM FEW250=



000
FTUS46 KSTO 281400 AAA
TAFSMF
TAF AMD
KSMF 281415Z 2814/2912 14007KT P6SM SCT250
      TEMPO 2816/2818 SCT010 SCT250
     FM282000 19010KT P6SM SCT250
     FM290600 15008KT P6SM FEW250=



000
FTUS46 KSTO 281400 AAA
TAFSAC
TAF AMD
KSAC 281415Z 2814/2912 17004KT P6SM BKN007
     FM281900 22006KT P6SM SCT010 SCT250
     FM282000 21007KT P6SM SCT250
     FM290500 18005KT P6SM FEW250=



000
FTUS46 KSTO 281100
TAFSAC
TAF
KSAC 281120Z 2812/2912 18005KT P6SM SCT250
     FM282000 21007KT P6SM SCT250
     FM290500 18005KT P6SM FEW250=



000
FTUS46 KSTO 281100
TAFSMF
TAF
KSMF 281120Z 2812/2912 15008KT P6SM SCT250
     FM282000 19010KT P6SM SCT250
     FM290600 15008KT P6SM FEW250=



000
FTUS46 KSTO 281100
TAFMHR
TAF
KMHR 281120Z 2812/2912 16006KT P6SM SCT250
     FM281700 21006KT P6SM SCT250
     FM290500 15006KT P6SM FEW250=



000
FTUS46 KSTO 281100
TAFMHR
TAF
KMHR 281120Z 2812/2912 16006KT P6SM SCT250
     FM281700 21006KT P6SM SCT250
     FM290500 15006KT P6SM FEW250=



000
FTUS46 KSTO 281100
TAFSAC
TAF
KSAC 281120Z 2812/2912 18005KT P6SM SCT250
     FM282000 21007KT P6SM SCT250
     FM290500 18005KT P6SM FEW250=



000
FTUS46 KSTO 281100
TAFSCK
TAF
KSCK 281120Z 2812/2912 30009KT P6SM SCT250=



000
FTUS46 KSTO 281100
TAFRBL
TAF
KRBL 281120Z 2812/2912 VRB04KT P6SM SCT250
     FM282100 16009KT P6SM SCT250
     FM290400 VRB04KT P6SM FEW250=



000
FTUS46 KSTO 281100
TAFRDD
TAF
KRDD 281120Z 2812/2912 VRB04KT P6SM SCT250
     FM282200 19008KT P6SM SCT250
     FM290400 VRB04KT P6SM FEW250=



000
FTUS46 KSTO 281100
TAFRDD
TAF
KRDD 281120Z 2812/2912 VRB04KT P6SM SCT250
     FM282200 19008KT P6SM SCT250
     FM290400 VRB04KT P6SM FEW250=



000
FTUS46 KSTO 281100
TAFRBL
TAF
KRBL 281120Z 2812/2912 VRB04KT P6SM SCT250
     FM282100 16009KT P6SM SCT250
     FM290400 VRB04KT P6SM FEW250=



000
FTUS46 KSTO 281100
TAFSCK
TAF
KSCK 281120Z 2812/2912 30009KT P6SM SCT250=



000
FTUS46 KSTO 281100
TAFSMF
TAF
KSMF 281120Z 2812/2912 15008KT P6SM SCT250
     FM282000 19010KT P6SM SCT250
     FM290600 15008KT P6SM FEW250=



000
FTUS46 KSTO 280500
TAFSCK
TAF
KSCK 280536Z 2806/2906 29006KT P6SM SKC
     FM290000 30011KT P6SM SKC=



000
FTUS46 KSTO 280500
TAFMHR
TAF
KMHR 280536Z 2806/2906 17006KT P6SM SKC
     FM282000 24006KT P6SM FEW250
     FM290500 19005KT P6SM FEW250=



000
FTUS46 KSTO 280500
TAFSMF
TAF
KSMF 280536Z 2806/2906 18010KT P6SM SKC
     FM280800 15008KT P6SM SKC
     FM282000 19007KT P6SM FEW250=



000
FTUS46 KSTO 280500
TAFRBL
TAF
KRBL 280536Z 2806/2906 VRB05KT P6SM SKC
     FM282100 16007KT P6SM FEW250
     FM290400 VRB05KT P6SM FEW250=



000
FTUS46 KSTO 280500
TAFSAC
TAF
KSAC 280536Z 2806/2906 18005KT P6SM SKC
     FM282000 23007KT P6SM FEW250=



000
FTUS46 KSTO 280500
TAFRDD
TAF
KRDD 280536Z 2806/2906 VRB05KT P6SM SKC
     FM282200 19007KT P6SM FEW250
     FM290400 VRB05KT P6SM FEW250=



000
FTUS46 KSTO 280500
TAFSCK
TAF
KSCK 280536Z 2806/2906 29006KT P6SM SKC
     FM290000 30011KT P6SM SKC=



000
FTUS46 KSTO 280500
TAFMHR
TAF
KMHR 280536Z 2806/2906 17006KT P6SM SKC
     FM282000 24006KT P6SM FEW250
     FM290500 19005KT P6SM FEW250=



000
FTUS46 KSTO 280500
TAFSMF
TAF
KSMF 280536Z 2806/2906 18010KT P6SM SKC
     FM280800 15008KT P6SM SKC
     FM282000 19007KT P6SM FEW250=



000
FTUS46 KSTO 280500
TAFRBL
TAF
KRBL 280536Z 2806/2906 VRB05KT P6SM SKC
     FM282100 16007KT P6SM FEW250
     FM290400 VRB05KT P6SM FEW250=



000
FTUS46 KSTO 280500
TAFRDD
TAF
KRDD 280536Z 2806/2906 VRB05KT P6SM SKC
     FM282200 19007KT P6SM FEW250
     FM290400 VRB05KT P6SM FEW250=



000
FTUS46 KSTO 280500
TAFSAC
TAF
KSAC 280536Z 2806/2906 18005KT P6SM SKC
     FM282000 23007KT P6SM FEW250=



000
FTUS46 KSTO 272300
TAFSAC
TAF
KSAC 272334Z 2800/2824 23008KT P6SM SKC
     FM280600 18007KT P6SM SKC
      TEMPO 2812/2816 FEW010
     FM282000 23007KT P6SM SKC=



000
FTUS46 KSTO 272300
TAFSCK
TAF
KSCK 272334Z 2800/2824 31010KT P6SM SKC
     FM280700 VRB05KT P6SM SKC
     FM281800 31008KT P6SM SKC=



000
FTUS46 KSTO 272300
TAFSMF
TAF
KSMF 272334Z 2800/2824 18010KT P6SM SKC
     FM280600 15008KT P6SM SKC
     FM282000 19007KT P6SM SKC=



000
FTUS46 KSTO 272300
TAFRBL
TAF
KRBL 272334Z 2800/2824 16009KT P6SM FEW200
     FM280400 VRB05KT P6SM SKC
     FM282100 16007KT P6SM FEW200=



000
FTUS46 KSTO 272300
TAFSMF
TAF
KSMF 272334Z 2800/2824 18010KT P6SM SKC
     FM280600 15008KT P6SM SKC
     FM282000 19007KT P6SM SKC=



000
FTUS46 KSTO 272300
TAFMHR
TAF
KMHR 272334Z 2800/2824 24008KT P6SM SKC
     FM280500 14006KT P6SM SKC
      TEMPO 2812/2816 SCT010
     FM282000 24006KT P6SM SKC=



000
FTUS46 KSTO 272300
TAFRDD
TAF
KRDD 272334Z 2800/2824 19008KT P6SM FEW200
     FM280400 VRB05KT P6SM FEW200
     FM282200 19007KT P6SM FEW200=



000
FTUS46 KSTO 272300
TAFSCK
TAF
KSCK 272334Z 2800/2824 31010KT P6SM SKC
     FM280700 VRB05KT P6SM SKC
     FM281800 31008KT P6SM SKC=



000
FTUS46 KSTO 272300
TAFSAC
TAF
KSAC 272334Z 2800/2824 23008KT P6SM SKC
     FM280600 18007KT P6SM SKC
      TEMPO 2812/2816 FEW010
     FM282000 23007KT P6SM SKC=



000
FTUS46 KSTO 272300
TAFRDD
TAF
KRDD 272334Z 2800/2824 19008KT P6SM FEW200
     FM280400 VRB05KT P6SM FEW200
     FM282200 19007KT P6SM FEW200=



000
FTUS46 KSTO 272300
TAFRBL
TAF
KRBL 272334Z 2800/2824 16009KT P6SM FEW200
     FM280400 VRB05KT P6SM SKC
     FM282100 16007KT P6SM FEW200=



000
FTUS46 KSTO 272300
TAFMHR
TAF
KMHR 272334Z 2800/2824 24008KT P6SM SKC
     FM280500 14006KT P6SM SKC
      TEMPO 2812/2816 SCT010
     FM282000 24006KT P6SM SKC=



000
FTUS46 KSTO 271700
TAFSMF
TAF
KSMF 271732Z 2718/2818 18005KT P6SM FEW015
     FM272100 19010KT P6SM SKC
     FM280600 15011KT P6SM SKC
      TEMPO 2813/2816 BKN012=



000
FTUS46 KSTO 271700
TAFMHR
TAF
KMHR 271732Z 2718/2818 15008KT P6SM SCT010
     FM271900 22008KT P6SM SKC
     FM280500 14006KT P6SM SKC
      TEMPO 2812/2816 BKN012=



000
FTUS46 KSTO 271700
TAFSAC
TAF
KSAC 271732Z 2718/2818 24009KT P6SM SKC
     FM280500 18007KT P6SM SKC
      TEMPO 2812/2816 BKN015=



000
FTUS46 KSTO 271700
TAFRDD
TAF
KRDD 271732Z 2718/2818 VRB05KT P6SM SKC
     FM272100 19009KT P6SM FEW100
     FM280400 VRB05KT P6SM SKC=



000
FTUS46 KSTO 271700
TAFRBL
TAF
KRBL 271732Z 2718/2818 VRB03KT P6SM SKC
     FM272200 17006KT P6SM SKC
     FM280400 VRB05KT P6SM SKC=



000
FTUS46 KSTO 271700
TAFSCK
TAF
KSCK 271732Z 2718/2818 31010KT P6SM SKC
     FM280700 VRB05KT P6SM SKC=



000
FTUS46 KSTO 271600 AAA
TAFSMF
TAF AMD
KSMF 271634Z 2717/2812 16008KT P6SM SCT012
     FM272100 19010KT P6SM SKC
     FM280600 15011KT P6SM SKC=



000
FTUS46 KSTO 271400 AAA
TAFSAC
TAF AMD
KSAC 271412Z 2714/2812 21011G16KT P6SM FEW009
     FM271800 24010KT P6SM SKC
     FM280500 18007KT P6SM SKC=



000
FTUS46 KSTO 271100
TAFMHR
TAF
KMHR 271136Z 2712/2812 15008KT P6SM SCT010
      TEMPO 2712/2716 BKN009
     FM271900 22008KT P6SM SKC
     FM280500 14006KT P6SM SKC=



000
FTUS46 KSTO 271100
TAFRDD
TAF
KRDD 271136Z 2712/2812 VRB05KT P6SM FEW100
     FM272100 19009KT P6SM FEW100
     FM280400 VRB05KT P6SM SKC=



000
FTUS46 KSTO 271100
TAFSMF
TAF
KSMF 271136Z 2712/2812 15008KT P6SM SKC
      TEMPO 2714/2718 BKN010
     FM272100 19010KT P6SM SKC
     FM280600 15007KT P6SM SKC=



000
FTUS46 KSTO 271100
TAFSCK
TAF
KSCK 271136Z 2712/2812 VRB05KT P6SM SKC
     FM272100 30010KT P6SM SKC
     FM280700 VRB05KT P6SM SKC=



000
FTUS46 KSTO 271100
TAFSAC
TAF
KSAC 271136Z 2712/2812 20008KT P6SM SCT010
      TEMPO 2712/2716 BKN009
     FM271900 21009G16KT P6SM SKC
     FM280500 18007KT P6SM SKC=



000
FTUS46 KSTO 271100
TAFRBL
TAF
KRBL 271136Z 2712/2812 16009KT P6SM SKC=



000
FTUS46 KSTO 271100
TAFRDD
TAF
KRDD 271136Z 2712/2812 VRB05KT P6SM FEW100
     FM272100 19009KT P6SM FEW100
     FM280400 VRB05KT P6SM SKC=



000
FTUS46 KSTO 271100
TAFRBL
TAF
KRBL 271136Z 2712/2812 16009KT P6SM SKC=



000
FTUS46 KSTO 270500
TAFSMF
TAF
KSMF 270520Z 2706/2806 17011KT P6SM SKC
      TEMPO 2714/2716 SCT008
     FM272100 19010KT P6SM SKC=



000
FTUS46 KSTO 270500
TAFSAC
TAF
KSAC 270520Z 2706/2806 20009G15KT P6SM SKC
     FM270800 19007KT P6SM SKC
      TEMPO 2711/2715 BKN008
     FM272300 20009G15KT P6SM SKC=



000
FTUS46 KSTO 270500
TAFMHR
TAF
KMHR 270520Z 2706/2806 21007KT P6SM SKC
     FM270700 18007KT P6SM SKC
      TEMPO 2712/2716 BKN008
     FM271900 23008KT P6SM SKC=



000
FTUS46 KSTO 270500
TAFSCK
TAF
KSCK 270520Z 2706/2806 29009KT P6SM SKC
     FM270900 VRB05KT P6SM SKC
     FM272100 30010KT P6SM SKC=



000
FTUS46 KSTO 270500
TAFRDD
TAF
KRDD 270520Z 2706/2806 VRB05KT P6SM SKC
     FM272100 19009KT P6SM SKC=



000
FTUS46 KSTO 270500
TAFRBL
TAF
KRBL 270520Z 2706/2806 15006KT P6SM SKC
     FM272100 17010KT P6SM SKC=



000
FTUS46 KSTO 262300
TAFSCK
TAF
KSCK 262331Z 2700/2724 30011KT P6SM SKC
     FM270700 VRB05KT P6SM SKC
     FM272100 30010KT P6SM SKC=



000
FTUS46 KSTO 262300
TAFMHR
TAF
KMHR 262331Z 2700/2724 22009KT P6SM SKC
     FM270700 19007KT P6SM SKC
     FM271700 23008KT P6SM SKC=



000
FTUS46 KSTO 262300
TAFSAC
TAF
KSAC 262331Z 2700/2724 21010G17KT P6SM SKC
     FM270800 19007KT P6SM SKC=



000
FTUS46 KSTO 262300
TAFSMF
TAF
KSMF 262331Z 2700/2724 17011KT P6SM SKC
     FM272100 19010KT P6SM SKC=



000
FTUS46 KSTO 262300
TAFRDD
TAF
KRDD 262331Z 2700/2724 18011KT P6SM SKC
     FM270500 VRB05KT P6SM SKC
     FM272100 19009KT P6SM SKC=



000
FTUS46 KSTO 262300
TAFRBL
TAF
KRBL 262331Z 2700/2724 17011KT P6SM SKC
     FM270500 16006KT P6SM SKC
     FM272100 17010KT P6SM SKC=



000
FTUS46 KSTO 261700
TAFMHR
TAF
KMHR 261737Z 2618/2718 22010KT P6SM SKC=



000
FTUS46 KSTO 261700
TAFRDD
TAF
KRDD 261737Z 2618/2718 18007KT P6SM SCT250=



000
FTUS46 KSTO 261700
TAFRBL
TAF
KRBL 261737Z 2618/2718 17008KT P6SM SKC=



000
FTUS46 KSTO 261700
TAFSCK
TAF
KSCK 261737Z 2618/2718 31006KT P6SM SKC
     FM262300 30010G17KT P6SM SKC=



000
FTUS46 KSTO 261700
TAFSMF
TAF
KSMF 261737Z 2618/2718 18007KT P6SM SKC
     FM262200 19012G20KT P6SM SKC=



000
FTUS46 KSTO 261700
TAFSAC
TAF
KSAC 261737Z 2618/2718 21010G17KT P6SM SKC
     FM270800 18005KT P6SM SKC=



000
FTUS46 KSTO 261500 AAA
TAFSAC
TAF AMD
KSAC 261528Z 2615/2712 21010G17KT P6SM SKC
     FM270800 18005KT P6SM SKC=



000
FTUS46 KSTO 261100
TAFSCK
TAF
KSCK 261120Z 2612/2712 31008KT P6SM SKC=



000
FTUS46 KSTO 261100
TAFRDD
TAF
KRDD 261120Z 2612/2712 18007KT P6SM SCT250=



000
FTUS46 KSTO 261100
TAFMHR
TAF
KMHR 261120Z 2612/2712 19009KT P6SM BKN010
     FM261800 20010KT P6SM SKC=



000
FTUS46 KSTO 261100
TAFSMF
TAF
KSMF 261120Z 2612/2712 15011KT P6SM SCT010
     FM262000 18007KT P6SM SKC=



000
FTUS46 KSTO 261100
TAFSAC
TAF
KSAC 261120Z 2612/2712 20010G17KT P6SM OVC010
     FM261800 21009G15KT P6SM SKC
     FM270800 18005KT P6SM SKC=



000
FTUS46 KSTO 261100
TAFRBL
TAF
KRBL 261120Z 2612/2712 14005KT P6SM SKC
     FM262100 16008KT P6SM FEW250=



000
FTUS46 KSTO 260800 AAA
TAFSAC
TAF AMD
KSAC 260811Z 2608/2706 19009G15KT P6SM BKN010
     FM261400 21010G15KT P6SM SKC
     FM262000 23010G16KT P6SM SKC
     FM270400 20008KT P6SM SKC=



000
FTUS46 KSTO 260700 AAA
TAFMHR
TAF AMD
KMHR 260718Z 2607/2706 14007KT P6SM BKN010
     FM261800 20010KT P6SM SKC
     FM270500 20007KT P6SM SKC
      AMD NOT SKED=



000
FTUS46 KSTO 260500
TAFRDD
TAF
KRDD 260520Z 2606/2706 VRB04KT P6SM SCT100
     FM262100 18008KT P6SM SCT250=



000
FTUS46 KSTO 260500
TAFSAC
TAF
KSAC 260520Z 2606/2706 20011G16KT P6SM SKC
     FM260700 19008KT P6SM SKC
     FM262000 23010G16KT P6SM SKC
     FM270400 20008KT P6SM SKC=



000
FTUS46 KSTO 260500
TAFSMF
TAF
KSMF 260520Z 2606/2706 16011KT P6SM SKC
     FM262000 19007KT P6SM SKC=



000
FTUS46 KSTO 260500
TAFRDD
TAF
KRDD 260520Z 2606/2706 VRB04KT P6SM SCT100
     FM262100 18008KT P6SM SCT250=



000
FTUS46 KSTO 260500
TAFRBL
TAF
KRBL 260520Z 2606/2706 16005KT P6SM SCT100
     FM262100 16009KT P6SM FEW250=



000
FTUS46 KSTO 260500
TAFMHR
TAF
KMHR 260520Z 2606/2706 21008KT P6SM SKC
     FM260700 17008KT P6SM SKC
     FM262000 23010KT P6SM SKC
     FM270500 20007KT P6SM SKC=



000
FTUS46 KSTO 260500
TAFSCK
TAF
KSCK 260520Z 2606/2706 30009KT P6SM SKC=



    US Dept of Commerce
    National Oceanic and Atmospheric Administration
    National Weather Service
    1325 East West Highway
    Silver Spring, MD 20910
    Page Author: NWS Internet Services Team
Disclaimer
Information Quality
Credits
Glossary
Privacy Policy
Freedom of Information Act (FOIA)
About Us
Career Opportunities